sensor_id;sensor_type;location;lat;lon;timestamp;P1;durP1;ratioP1;P2;durP2;ratioP2
14740;SDS011;7462;53.530;9.414;2022-07-06T00:01:22;4.37;;;1.97;;
14740;SDS011;7462;53.530;9.414;2022-07-06T00:03:50;4.73;;;1.60;;
14740;SDS011;7462;53.530;9.414;2022-07-06T00:06:21;3.30;;;1.43;;
14740;SDS011;7462;53.530;9.414;2022-07-06T00:08:51;2.50;;;1.50;;
14740;SDS011;7462;53.530;9.414;2022-07-06T00:11:19;3.33;;;1.57;;
14740;SDS011;7462;53.530;9.414;2022-07-06T00:13:48;4.27;;;1.37;;
14740;SDS011;7462;53.530;9.414;2022-07-06T00:16:16;2.97;;;1.40;;
14740;SDS011;7462;53.530;9.414;2022-07-06T00:18:44;4.90;;;1.37;;
14740;SDS011;7462;53.530;9.414;2022-07-06T00:21:13;3.77;;;1.40;;
14740;SDS011;7462;53.530;9.414;2022-07-06T00:23:41;4.03;;;1.70;;
14740;SDS011;7462;53.530;9.414;2022-07-06T00:26:10;5.67;;;1.90;;
14740;SDS011;7462;53.530;9.414;2022-07-06T00:28:39;3.37;;;1.37;;
14740;SDS011;7462;53.530;9.414;2022-07-06T00:31:07;4.00;;;1.30;;
14740;SDS011;7462;53.530;9.414;2022-07-06T00:33:35;2.77;;;1.33;;
14740;SDS011;7462;53.530;9.414;2022-07-06T00:36:04;4.17;;;1.33;;
14740;SDS011;7462;53.530;9.414;2022-07-06T00:38:32;5.77;;;1.60;;
14740;SDS011;7462;53.530;9.414;2022-07-06T00:41:02;4.10;;;1.70;;
14740;SDS011;7462;53.530;9.414;2022-07-06T00:46:27;3.00;;;1.40;;
14740;SDS011;7462;53.530;9.414;2022-07-06T00:48:58;5.07;;;1.50;;
14740;SDS011;7462;53.530;9.414;2022-07-06T00:51:28;3.80;;;1.43;;
14740;SDS011;7462;53.530;9.414;2022-07-06T00:53:58;3.73;;;1.33;;
14740;SDS011;7462;53.530;9.414;2022-07-06T00:56:28;3.90;;;1.60;;
14740;SDS011;7462;53.530;9.414;2022-07-06T00:58:58;3.10;;;1.40;;
14740;SDS011;7462;53.530;9.414;2022-07-06T01:01:29;4.53;;;1.40;;
14740;SDS011;7462;53.530;9.414;2022-07-06T01:03:58;4.17;;;1.60;;
14740;SDS011;7462;53.530;9.414;2022-07-06T01:06:26;5.23;;;1.40;;
14740;SDS011;7462;53.530;9.414;2022-07-06T01:08:54;3.47;;;1.50;;
14740;SDS011;7462;53.530;9.414;2022-07-06T01:11:23;4.00;;;1.33;;
14740;SDS011;7462;53.530;9.414;2022-07-06T01:13:52;3.43;;;1.40;;
14740;SDS011;7462;53.530;9.414;2022-07-06T01:16:22;3.30;;;1.43;;
14740;SDS011;7462;53.530;9.414;2022-07-06T01:18:52;4.90;;;1.60;;
14740;SDS011;7462;53.530;9.414;2022-07-06T01:21:21;3.07;;;1.50;;
14740;SDS011;7462;53.530;9.414;2022-07-06T01:23:50;3.13;;;1.40;;
14740;SDS011;7462;53.530;9.414;2022-07-06T01:26:19;3.90;;;1.33;;
14740;SDS011;7462;53.530;9.414;2022-07-06T01:28:48;3.07;;;1.30;;
14740;SDS011;7462;53.530;9.414;2022-07-06T01:31:18;6.27;;;1.73;;
14740;SDS011;7462;53.530;9.414;2022-07-06T01:33:49;4.57;;;1.57;;
14740;SDS011;7462;53.530;9.414;2022-07-06T01:36:19;4.43;;;1.60;;
14740;SDS011;7462;53.530;9.414;2022-07-06T01:38:50;4.03;;;1.60;;
14740;SDS011;7462;53.530;9.414;2022-07-06T01:41:20;3.93;;;1.60;;
14740;SDS011;7462;53.530;9.414;2022-07-06T01:43:48;8.30;;;1.70;;
14740;SDS011;7462;53.530;9.414;2022-07-06T01:46:17;3.87;;;1.60;;
14740;SDS011;7462;53.530;9.414;2022-07-06T01:48:46;3.00;;;1.63;;
14740;SDS011;7462;53.530;9.414;2022-07-06T01:51:14;3.77;;;1.70;;
14740;SDS011;7462;53.530;9.414;2022-07-06T01:53:45;4.97;;;1.70;;
14740;SDS011;7462;53.530;9.414;2022-07-06T01:56:16;4.77;;;1.47;;
14740;SDS011;7462;53.530;9.414;2022-07-06T01:58:49;4.77;;;1.73;;
14740;SDS011;7462;53.530;9.414;2022-07-06T02:01:19;4.97;;;1.50;;
14740;SDS011;7462;53.530;9.414;2022-07-06T02:03:47;3.73;;;1.53;;
14740;SDS011;7462;53.530;9.414;2022-07-06T02:06:16;4.00;;;1.50;;
14740;SDS011;7462;53.530;9.414;2022-07-06T02:08:48;4.00;;;1.60;;
14740;SDS011;7462;53.530;9.414;2022-07-06T02:11:17;3.83;;;1.73;;
14740;SDS011;7462;53.530;9.414;2022-07-06T02:13:46;4.27;;;1.80;;
14740;SDS011;7462;53.530;9.414;2022-07-06T02:16:14;5.10;;;1.60;;
14740;SDS011;7462;53.530;9.414;2022-07-06T02:18:43;5.27;;;1.60;;
14740;SDS011;7462;53.530;9.414;2022-07-06T02:21:11;5.27;;;1.70;;
14740;SDS011;7462;53.530;9.414;2022-07-06T02:23:39;4.07;;;1.97;;
14740;SDS011;7462;53.530;9.414;2022-07-06T02:26:09;4.80;;;1.30;;
14740;SDS011;7462;53.530;9.414;2022-07-06T02:28:38;2.63;;;1.60;;
14740;SDS011;7462;53.530;9.414;2022-07-06T02:31:06;7.17;;;1.70;;
14740;SDS011;7462;53.530;9.414;2022-07-06T02:33:34;2.63;;;1.53;;
14740;SDS011;7462;53.530;9.414;2022-07-06T02:36:03;3.90;;;1.87;;
14740;SDS011;7462;53.530;9.414;2022-07-06T02:38:31;4.50;;;1.50;;
14740;SDS011;7462;53.530;9.414;2022-07-06T02:40:59;5.03;;;1.80;;
14740;SDS011;7462;53.530;9.414;2022-07-06T02:43:29;6.57;;;1.40;;
14740;SDS011;7462;53.530;9.414;2022-07-06T02:45:58;3.40;;;1.20;;
14740;SDS011;7462;53.530;9.414;2022-07-06T02:48:27;2.23;;;1.40;;
14740;SDS011;7462;53.530;9.414;2022-07-06T02:50:55;3.53;;;1.60;;
14740;SDS011;7462;53.530;9.414;2022-07-06T02:53:25;3.93;;;1.60;;
14740;SDS011;7462;53.530;9.414;2022-07-06T02:55:54;3.80;;;1.40;;
14740;SDS011;7462;53.530;9.414;2022-07-06T02:58:23;2.87;;;1.70;;
14740;SDS011;7462;53.530;9.414;2022-07-06T03:00:53;4.23;;;1.40;;
14740;SDS011;7462;53.530;9.414;2022-07-06T03:03:21;5.80;;;1.83;;
14740;SDS011;7462;53.530;9.414;2022-07-06T03:05:50;4.40;;;1.53;;
14740;SDS011;7462;53.530;9.414;2022-07-06T03:08:19;3.20;;;1.40;;
14740;SDS011;7462;53.530;9.414;2022-07-06T03:10:48;5.33;;;1.80;;
14740;SDS011;7462;53.530;9.414;2022-07-06T03:13:16;3.93;;;1.70;;
14740;SDS011;7462;53.530;9.414;2022-07-06T03:15:45;5.33;;;1.60;;
14740;SDS011;7462;53.530;9.414;2022-07-06T03:18:15;4.47;;;1.63;;
14740;SDS011;7462;53.530;9.414;2022-07-06T03:20:44;2.93;;;1.50;;
14740;SDS011;7462;53.530;9.414;2022-07-06T03:23:14;5.20;;;1.60;;
14740;SDS011;7462;53.530;9.414;2022-07-06T03:25:43;4.60;;;1.60;;
14740;SDS011;7462;53.530;9.414;2022-07-06T03:28:11;3.37;;;1.20;;
14740;SDS011;7462;53.530;9.414;2022-07-06T03:30:40;5.17;;;1.33;;
14740;SDS011;7462;53.530;9.414;2022-07-06T03:33:08;4.20;;;1.30;;
14740;SDS011;7462;53.530;9.414;2022-07-06T03:35:37;5.50;;;1.30;;
14740;SDS011;7462;53.530;9.414;2022-07-06T03:38:07;4.53;;;1.30;;
14740;SDS011;7462;53.530;9.414;2022-07-06T03:40:37;2.27;;;1.20;;
14740;SDS011;7462;53.530;9.414;2022-07-06T03:43:05;2.63;;;1.37;;
14740;SDS011;7462;53.530;9.414;2022-07-06T03:45:35;3.90;;;1.33;;
14740;SDS011;7462;53.530;9.414;2022-07-06T03:48:04;3.33;;;1.20;;
14740;SDS011;7462;53.530;9.414;2022-07-06T03:50:35;5.53;;;1.20;;
14740;SDS011;7462;53.530;9.414;2022-07-06T03:53:05;3.17;;;1.20;;
14740;SDS011;7462;53.530;9.414;2022-07-06T03:55:34;3.30;;;1.10;;
14740;SDS011;7462;53.530;9.414;2022-07-06T03:58:06;4.90;;;1.50;;
14740;SDS011;7462;53.530;9.414;2022-07-06T04:00:37;3.27;;;1.30;;
14740;SDS011;7462;53.530;9.414;2022-07-06T04:03:10;8.20;;;1.80;;
14740;SDS011;7462;53.530;9.414;2022-07-06T04:05:45;3.75;;;1.30;;
14740;SDS011;7462;53.530;9.414;2022-07-06T04:08:14;3.20;;;1.30;;
14740;SDS011;7462;53.530;9.414;2022-07-06T04:10:49;3.67;;;1.23;;
14740;SDS011;7462;53.530;9.414;2022-07-06T04:13:17;3.77;;;1.30;;
14740;SDS011;7462;53.530;9.414;2022-07-06T04:15:45;6.90;;;1.77;;
14740;SDS011;7462;53.530;9.414;2022-07-06T04:18:14;5.63;;;1.60;;
14740;SDS011;7462;53.530;9.414;2022-07-06T04:20:48;4.73;;;1.83;;
14740;SDS011;7462;53.530;9.414;2022-07-06T04:23:17;3.33;;;1.30;;
14740;SDS011;7462;53.530;9.414;2022-07-06T04:25:46;3.07;;;1.50;;
14740;SDS011;7462;53.530;9.414;2022-07-06T04:28:14;4.37;;;1.57;;
14740;SDS011;7462;53.530;9.414;2022-07-06T04:30:42;4.30;;;1.27;;
14740;SDS011;7462;53.530;9.414;2022-07-06T04:33:15;5.20;;;1.57;;
14740;SDS011;7462;53.530;9.414;2022-07-06T04:35:45;5.03;;;1.47;;
14740;SDS011;7462;53.530;9.414;2022-07-06T04:38:14;3.83;;;1.43;;
14740;SDS011;7462;53.530;9.414;2022-07-06T04:40:43;6.17;;;1.43;;
14740;SDS011;7462;53.530;9.414;2022-07-06T04:43:15;5.40;;;1.53;;
14740;SDS011;7462;53.530;9.414;2022-07-06T04:45:44;4.23;;;1.43;;
14740;SDS011;7462;53.530;9.414;2022-07-06T04:48:12;3.67;;;1.40;;
14740;SDS011;7462;53.530;9.414;2022-07-06T04:50:41;3.97;;;1.10;;
14740;SDS011;7462;53.530;9.414;2022-07-06T04:53:17;3.77;;;1.60;;
14740;SDS011;7462;53.530;9.414;2022-07-06T04:55:45;3.63;;;1.10;;
14740;SDS011;7462;53.530;9.414;2022-07-06T04:58:14;2.77;;;1.20;;
14740;SDS011;7462;53.530;9.414;2022-07-06T05:00:42;2.20;;;1.17;;
14740;SDS011;7462;53.530;9.414;2022-07-06T05:03:11;3.27;;;1.10;;
14740;SDS011;7462;53.530;9.414;2022-07-06T05:05:39;2.67;;;1.13;;
14740;SDS011;7462;53.530;9.414;2022-07-06T05:08:07;4.43;;;1.10;;
14740;SDS011;7462;53.530;9.414;2022-07-06T05:10:36;5.30;;;1.27;;
14740;SDS011;7462;53.530;9.414;2022-07-06T05:13:05;3.43;;;1.07;;
14740;SDS011;7462;53.530;9.414;2022-07-06T05:15:33;5.77;;;1.27;;
14740;SDS011;7462;53.530;9.414;2022-07-06T05:18:01;4.23;;;1.30;;
14740;SDS011;7462;53.530;9.414;2022-07-06T05:20:30;2.53;;;1.03;;
14740;SDS011;7462;53.530;9.414;2022-07-06T05:22:59;4.90;;;1.00;;
14740;SDS011;7462;53.530;9.414;2022-07-06T05:25:29;4.27;;;0.90;;
14740;SDS011;7462;53.530;9.414;2022-07-06T05:28:01;3.00;;;1.37;;
14740;SDS011;7462;53.530;9.414;2022-07-06T05:30:29;3.13;;;0.90;;
14740;SDS011;7462;53.530;9.414;2022-07-06T05:32:58;7.20;;;1.50;;
14740;SDS011;7462;53.530;9.414;2022-07-06T05:35:26;3.37;;;1.00;;
14740;SDS011;7462;53.530;9.414;2022-07-06T05:38:15;4.43;;;1.30;;
14740;SDS011;7462;53.530;9.414;2022-07-06T05:40:43;2.27;;;1.07;;
14740;SDS011;7462;53.530;9.414;2022-07-06T05:43:13;3.17;;;1.00;;
14740;SDS011;7462;53.530;9.414;2022-07-06T05:45:41;4.10;;;1.10;;
14740;SDS011;7462;53.530;9.414;2022-07-06T05:48:10;5.67;;;1.23;;
14740;SDS011;7462;53.530;9.414;2022-07-06T05:50:56;5.43;;;1.20;;
14740;SDS011;7462;53.530;9.414;2022-07-06T05:53:24;4.63;;;1.37;;
14740;SDS011;7462;53.530;9.414;2022-07-06T05:55:55;4.67;;;1.10;;
14740;SDS011;7462;53.530;9.414;2022-07-06T05:58:26;3.17;;;1.20;;
14740;SDS011;7462;53.530;9.414;2022-07-06T06:00:57;4.63;;;1.37;;
14740;SDS011;7462;53.530;9.414;2022-07-06T06:03:25;2.43;;;1.00;;
14740;SDS011;7462;53.530;9.414;2022-07-06T06:05:54;4.10;;;1.10;;
14740;SDS011;7462;53.530;9.414;2022-07-06T06:08:23;3.40;;;1.00;;
14740;SDS011;7462;53.530;9.414;2022-07-06T06:10:52;5.23;;;1.20;;
14740;SDS011;7462;53.530;9.414;2022-07-06T06:13:22;5.33;;;1.13;;
14740;SDS011;7462;53.530;9.414;2022-07-06T06:15:52;4.40;;;1.37;;
14740;SDS011;7462;53.530;9.414;2022-07-06T06:18:20;3.47;;;1.10;;
14740;SDS011;7462;53.530;9.414;2022-07-06T06:20:49;2.00;;;1.00;;
14740;SDS011;7462;53.530;9.414;2022-07-06T06:23:17;4.87;;;1.03;;
14740;SDS011;7462;53.530;9.414;2022-07-06T06:25:46;3.27;;;0.87;;
14740;SDS011;7462;53.530;9.414;2022-07-06T06:28:14;3.57;;;1.20;;
14740;SDS011;7462;53.530;9.414;2022-07-06T06:30:42;3.03;;;1.10;;
14740;SDS011;7462;53.530;9.414;2022-07-06T06:33:12;3.23;;;1.10;;
14740;SDS011;7462;53.530;9.414;2022-07-06T06:35:42;3.50;;;1.00;;
14740;SDS011;7462;53.530;9.414;2022-07-06T06:38:11;4.13;;;1.20;;
14740;SDS011;7462;53.530;9.414;2022-07-06T06:40:40;2.23;;;0.80;;
14740;SDS011;7462;53.530;9.414;2022-07-06T06:43:08;2.20;;;1.00;;
14740;SDS011;7462;53.530;9.414;2022-07-06T06:45:44;3.93;;;1.00;;
14740;SDS011;7462;53.530;9.414;2022-07-06T06:48:14;2.93;;;1.00;;
14740;SDS011;7462;53.530;9.414;2022-07-06T06:50:43;2.93;;;0.97;;
14740;SDS011;7462;53.530;9.414;2022-07-06T06:53:12;3.20;;;1.13;;
14740;SDS011;7462;53.530;9.414;2022-07-06T06:55:40;4.60;;;1.13;;
14740;SDS011;7462;53.530;9.414;2022-07-06T06:58:08;4.53;;;1.20;;
14740;SDS011;7462;53.530;9.414;2022-07-06T07:00:36;3.50;;;0.80;;
14740;SDS011;7462;53.530;9.414;2022-07-06T07:03:04;2.57;;;1.10;;
14740;SDS011;7462;53.530;9.414;2022-07-06T07:05:34;2.90;;;1.10;;
14740;SDS011;7462;53.530;9.414;2022-07-06T07:08:02;3.20;;;1.00;;
14740;SDS011;7462;53.530;9.414;2022-07-06T07:10:31;5.43;;;1.10;;
14740;SDS011;7462;53.530;9.414;2022-07-06T07:12:59;3.20;;;1.00;;
14740;SDS011;7462;53.530;9.414;2022-07-06T07:15:28;6.87;;;1.10;;
14740;SDS011;7462;53.530;9.414;2022-07-06T07:17:56;2.67;;;0.90;;
14740;SDS011;7462;53.530;9.414;2022-07-06T07:20:24;3.40;;;0.80;;
14740;SDS011;7462;53.530;9.414;2022-07-06T07:22:53;2.70;;;0.60;;
14740;SDS011;7462;53.530;9.414;2022-07-06T07:25:22;4.97;;;1.00;;
14740;SDS011;7462;53.530;9.414;2022-07-06T07:27:50;3.47;;;0.90;;
14740;SDS011;7462;53.530;9.414;2022-07-06T07:30:18;2.73;;;0.80;;
14740;SDS011;7462;53.530;9.414;2022-07-06T07:32:46;3.73;;;0.83;;
14740;SDS011;7462;53.530;9.414;2022-07-06T07:35:14;1.77;;;0.70;;
14740;SDS011;7462;53.530;9.414;2022-07-06T07:37:42;4.60;;;0.80;;
14740;SDS011;7462;53.530;9.414;2022-07-06T07:40:12;4.03;;;1.07;;
14740;SDS011;7462;53.530;9.414;2022-07-06T07:42:40;1.40;;;0.77;;
14740;SDS011;7462;53.530;9.414;2022-07-06T07:45:09;3.60;;;1.10;;
14740;SDS011;7462;53.530;9.414;2022-07-06T07:47:38;4.30;;;1.07;;
14740;SDS011;7462;53.530;9.414;2022-07-06T07:50:07;1.83;;;0.77;;
14740;SDS011;7462;53.530;9.414;2022-07-06T07:52:36;2.73;;;0.80;;
14740;SDS011;7462;53.530;9.414;2022-07-06T07:55:05;3.77;;;0.60;;
14740;SDS011;7462;53.530;9.414;2022-07-06T07:57:55;3.97;;;0.90;;
14740;SDS011;7462;53.530;9.414;2022-07-06T08:00:23;3.37;;;0.77;;
14740;SDS011;7462;53.530;9.414;2022-07-06T08:02:53;3.40;;;0.90;;
14740;SDS011;7462;53.530;9.414;2022-07-06T08:05:21;2.73;;;0.60;;
14740;SDS011;7462;53.530;9.414;2022-07-06T08:07:50;2.73;;;0.60;;
14740;SDS011;7462;53.530;9.414;2022-07-06T08:10:18;2.80;;;0.90;;
14740;SDS011;7462;53.530;9.414;2022-07-06T08:12:46;3.33;;;0.90;;
14740;SDS011;7462;53.530;9.414;2022-07-06T08:15:16;2.50;;;0.50;;
14740;SDS011;7462;53.530;9.414;2022-07-06T08:17:44;2.33;;;0.70;;
14740;SDS011;7462;53.530;9.414;2022-07-06T08:20:13;3.60;;;0.73;;
14740;SDS011;7462;53.530;9.414;2022-07-06T08:22:41;3.27;;;0.80;;
14740;SDS011;7462;53.530;9.414;2022-07-06T08:25:10;1.93;;;0.70;;
14740;SDS011;7462;53.530;9.414;2022-07-06T08:27:38;3.67;;;0.93;;
14740;SDS011;7462;53.530;9.414;2022-07-06T08:30:10;1.53;;;0.67;;
14740;SDS011;7462;53.530;9.414;2022-07-06T08:32:40;2.57;;;0.90;;
14740;SDS011;7462;53.530;9.414;2022-07-06T08:35:30;3.10;;;0.60;;
14740;SDS011;7462;53.530;9.414;2022-07-06T08:37:58;2.93;;;0.80;;
14740;SDS011;7462;53.530;9.414;2022-07-06T08:40:28;4.10;;;1.00;;
14740;SDS011;7462;53.530;9.414;2022-07-06T08:43:06;2.97;;;0.70;;
14740;SDS011;7462;53.530;9.414;2022-07-06T08:45:34;3.13;;;0.90;;
14740;SDS011;7462;53.530;9.414;2022-07-06T08:48:05;3.43;;;1.00;;
14740;SDS011;7462;53.530;9.414;2022-07-06T08:50:34;2.67;;;0.90;;
14740;SDS011;7462;53.530;9.414;2022-07-06T08:53:02;2.00;;;0.70;;
14740;SDS011;7462;53.530;9.414;2022-07-06T08:55:31;1.23;;;0.80;;
14740;SDS011;7462;53.530;9.414;2022-07-06T08:58:02;4.10;;;0.93;;
14740;SDS011;7462;53.530;9.414;2022-07-06T09:00:33;2.47;;;0.83;;
14740;SDS011;7462;53.530;9.414;2022-07-06T09:03:01;2.63;;;0.93;;
14740;SDS011;7462;53.530;9.414;2022-07-06T09:05:31;2.33;;;0.83;;
14740;SDS011;7462;53.530;9.414;2022-07-06T09:08:02;4.23;;;0.83;;
14740;SDS011;7462;53.530;9.414;2022-07-06T09:10:31;3.83;;;1.23;;
14740;SDS011;7462;53.530;9.414;2022-07-06T09:13:02;3.90;;;1.80;;
14740;SDS011;7462;53.530;9.414;2022-07-06T09:15:31;3.67;;;1.50;;
14740;SDS011;7462;53.530;9.414;2022-07-06T09:18:00;3.40;;;1.37;;
14740;SDS011;7462;53.530;9.414;2022-07-06T09:20:29;2.37;;;1.10;;
14740;SDS011;7462;53.530;9.414;2022-07-06T09:22:59;3.00;;;1.20;;
14740;SDS011;7462;53.530;9.414;2022-07-06T09:25:29;2.33;;;0.60;;
14740;SDS011;7462;53.530;9.414;2022-07-06T09:27:58;2.33;;;0.80;;
14740;SDS011;7462;53.530;9.414;2022-07-06T09:30:27;1.77;;;0.83;;
14740;SDS011;7462;53.530;9.414;2022-07-06T09:32:56;1.97;;;0.70;;
14740;SDS011;7462;53.530;9.414;2022-07-06T09:35:26;2.47;;;0.70;;
14740;SDS011;7462;53.530;9.414;2022-07-06T09:38:01;2.50;;;0.77;;
14740;SDS011;7462;53.530;9.414;2022-07-06T09:40:31;3.07;;;0.80;;
14740;SDS011;7462;53.530;9.414;2022-07-06T09:43:07;2.50;;;0.83;;
14740;SDS011;7462;53.530;9.414;2022-07-06T09:45:37;2.17;;;0.70;;
14740;SDS011;7462;53.530;9.414;2022-07-06T09:48:07;1.57;;;0.73;;
14740;SDS011;7462;53.530;9.414;2022-07-06T09:50:41;2.17;;;1.00;;
14740;SDS011;7462;53.530;9.414;2022-07-06T09:53:12;2.27;;;0.90;;
14740;SDS011;7462;53.530;9.414;2022-07-06T09:55:43;2.23;;;0.90;;
14740;SDS011;7462;53.530;9.414;2022-07-06T09:58:12;3.77;;;0.87;;
14740;SDS011;7462;53.530;9.414;2022-07-06T10:00:41;4.83;;;0.90;;
14740;SDS011;7462;53.530;9.414;2022-07-06T10:03:09;1.70;;;0.57;;
14740;SDS011;7462;53.530;9.414;2022-07-06T10:05:39;1.00;;;0.60;;
14740;SDS011;7462;53.530;9.414;2022-07-06T10:08:08;2.37;;;0.83;;
14740;SDS011;7462;53.530;9.414;2022-07-06T10:10:39;2.70;;;0.57;;
14740;SDS011;7462;53.530;9.414;2022-07-06T10:13:08;1.90;;;0.50;;
14740;SDS011;7462;53.530;9.414;2022-07-06T10:15:38;3.57;;;0.93;;
14740;SDS011;7462;53.530;9.414;2022-07-06T10:18:07;2.37;;;0.50;;
14740;SDS011;7462;53.530;9.414;2022-07-06T10:20:37;4.97;;;1.00;;
14740;SDS011;7462;53.530;9.414;2022-07-06T10:23:08;1.93;;;0.60;;
14740;SDS011;7462;53.530;9.414;2022-07-06T10:25:36;3.23;;;0.70;;
14740;SDS011;7462;53.530;9.414;2022-07-06T10:28:06;3.67;;;0.67;;
14740;SDS011;7462;53.530;9.414;2022-07-06T10:30:41;1.83;;;0.60;;
14740;SDS011;7462;53.530;9.414;2022-07-06T10:33:11;5.93;;;1.00;;
14740;SDS011;7462;53.530;9.414;2022-07-06T10:35:41;1.80;;;0.60;;
14740;SDS011;7462;53.530;9.414;2022-07-06T10:38:11;2.10;;;0.60;;
14740;SDS011;7462;53.530;9.414;2022-07-06T10:40:40;2.17;;;0.53;;
14740;SDS011;7462;53.530;9.414;2022-07-06T10:43:33;1.97;;;0.60;;
14740;SDS011;7462;53.530;9.414;2022-07-06T10:46:06;2.73;;;0.70;;
14740;SDS011;7462;53.530;9.414;2022-07-06T10:48:36;3.20;;;0.70;;
14740;SDS011;7462;53.530;9.414;2022-07-06T10:51:05;2.60;;;0.60;;
14740;SDS011;7462;53.530;9.414;2022-07-06T10:53:34;2.33;;;0.70;;
14740;SDS011;7462;53.530;9.414;2022-07-06T10:56:06;2.90;;;0.80;;
14740;SDS011;7462;53.530;9.414;2022-07-06T10:58:36;3.30;;;0.70;;
14740;SDS011;7462;53.530;9.414;2022-07-06T11:01:10;2.70;;;1.00;;
14740;SDS011;7462;53.530;9.414;2022-07-06T11:03:40;2.67;;;0.80;;
14740;SDS011;7462;53.530;9.414;2022-07-06T11:06:11;3.77;;;0.80;;
14740;SDS011;7462;53.530;9.414;2022-07-06T11:08:42;6.37;;;0.90;;
14740;SDS011;7462;53.530;9.414;2022-07-06T11:11:13;2.77;;;0.70;;
14740;SDS011;7462;53.530;9.414;2022-07-06T11:13:47;3.80;;;0.83;;
14740;SDS011;7462;53.530;9.414;2022-07-06T11:16:16;3.00;;;0.80;;
14740;SDS011;7462;53.530;9.414;2022-07-06T11:18:46;2.30;;;0.60;;
14740;SDS011;7462;53.530;9.414;2022-07-06T11:21:19;3.30;;;0.80;;
14740;SDS011;7462;53.530;9.414;2022-07-06T11:23:49;2.57;;;0.60;;
14740;SDS011;7462;53.530;9.414;2022-07-06T11:26:19;2.50;;;0.60;;
14740;SDS011;7462;53.530;9.414;2022-07-06T11:28:50;2.43;;;0.47;;
14740;SDS011;7462;53.530;9.414;2022-07-06T11:31:19;2.63;;;0.67;;
14740;SDS011;7462;53.530;9.414;2022-07-06T11:33:47;2.47;;;0.70;;
14740;SDS011;7462;53.530;9.414;2022-07-06T11:36:17;2.67;;;0.70;;
14740;SDS011;7462;53.530;9.414;2022-07-06T11:38:46;2.20;;;0.80;;
14740;SDS011;7462;53.530;9.414;2022-07-06T11:41:15;3.47;;;0.60;;
14740;SDS011;7462;53.530;9.414;2022-07-06T11:43:46;1.83;;;0.60;;
14740;SDS011;7462;53.530;9.414;2022-07-06T11:46:21;1.67;;;0.50;;
14740;SDS011;7462;53.530;9.414;2022-07-06T11:48:51;4.20;;;0.70;;
14740;SDS011;7462;53.530;9.414;2022-07-06T11:51:20;1.87;;;0.70;;
14740;SDS011;7462;53.530;9.414;2022-07-06T11:53:50;2.90;;;0.50;;
14740;SDS011;7462;53.530;9.414;2022-07-06T11:56:22;3.37;;;0.60;;
14740;SDS011;7462;53.530;9.414;2022-07-06T11:58:55;1.40;;;0.50;;
14740;SDS011;7462;53.530;9.414;2022-07-06T12:01:26;2.57;;;0.80;;
14740;SDS011;7462;53.530;9.414;2022-07-06T12:03:57;2.37;;;0.43;;
14740;SDS011;7462;53.530;9.414;2022-07-06T12:06:27;2.43;;;0.60;;
14740;SDS011;7462;53.530;9.414;2022-07-06T12:08:56;1.47;;;0.40;;
14740;SDS011;7462;53.530;9.414;2022-07-06T12:11:26;2.27;;;0.40;;
14740;SDS011;7462;53.530;9.414;2022-07-06T12:13:58;2.43;;;0.50;;
14740;SDS011;7462;53.530;9.414;2022-07-06T12:16:31;2.47;;;0.60;;
14740;SDS011;7462;53.530;9.414;2022-07-06T12:19:02;1.63;;;0.30;;
14740;SDS011;7462;53.530;9.414;2022-07-06T12:21:33;1.63;;;0.33;;
14740;SDS011;7462;53.530;9.414;2022-07-06T12:24:05;0.93;;;0.40;;
14740;SDS011;7462;53.530;9.414;2022-07-06T12:26:38;1.80;;;0.40;;
14740;SDS011;7462;53.530;9.414;2022-07-06T12:29:09;0.60;;;0.40;;
14740;SDS011;7462;53.530;9.414;2022-07-06T12:31:40;3.07;;;0.50;;
14740;SDS011;7462;53.530;9.414;2022-07-06T12:34:13;0.93;;;0.30;;
14740;SDS011;7462;53.530;9.414;2022-07-06T12:36:43;0.47;;;0.30;;
14740;SDS011;7462;53.530;9.414;2022-07-06T12:39:12;2.23;;;0.50;;
14740;SDS011;7462;53.530;9.414;2022-07-06T12:41:46;2.53;;;0.53;;
14740;SDS011;7462;53.530;9.414;2022-07-06T12:44:17;0.70;;;0.40;;
14740;SDS011;7462;53.530;9.414;2022-07-06T12:46:46;2.63;;;0.67;;
14740;SDS011;7462;53.530;9.414;2022-07-06T12:49:18;1.63;;;0.40;;
14740;SDS011;7462;53.530;9.414;2022-07-06T12:51:50;1.93;;;0.40;;
14740;SDS011;7462;53.530;9.414;2022-07-06T12:54:22;2.03;;;0.50;;
14740;SDS011;7462;53.530;9.414;2022-07-06T12:59:46;1.87;;;0.50;;
14740;SDS011;7462;53.530;9.414;2022-07-06T13:02:20;1.50;;;0.47;;
14740;SDS011;7462;53.530;9.414;2022-07-06T13:05:09;2.57;;;0.97;;
14740;SDS011;7462;53.530;9.414;2022-07-06T13:07:43;1.07;;;0.43;;
14740;SDS011;7462;53.530;9.414;2022-07-06T13:10:13;1.90;;;0.37;;
14740;SDS011;7462;53.530;9.414;2022-07-06T13:12:42;3.03;;;0.50;;
14740;SDS011;7462;53.530;9.414;2022-07-06T13:15:12;2.63;;;0.70;;
14740;SDS011;7462;53.530;9.414;2022-07-06T13:17:41;1.30;;;0.40;;
14740;SDS011;7462;53.530;9.414;2022-07-06T13:20:11;1.57;;;0.60;;
14740;SDS011;7462;53.530;9.414;2022-07-06T13:22:40;2.43;;;0.50;;
14740;SDS011;7462;53.530;9.414;2022-07-06T13:25:08;1.63;;;0.50;;
14740;SDS011;7462;53.530;9.414;2022-07-06T13:27:36;3.27;;;0.77;;
14740;SDS011;7462;53.530;9.414;2022-07-06T13:30:04;0.60;;;0.30;;
14740;SDS011;7462;53.530;9.414;2022-07-06T13:32:34;2.10;;;0.70;;
14740;SDS011;7462;53.530;9.414;2022-07-06T13:35:03;2.30;;;0.53;;
14740;SDS011;7462;53.530;9.414;2022-07-06T13:37:31;3.10;;;0.70;;
14740;SDS011;7462;53.530;9.414;2022-07-06T13:40:00;2.13;;;0.50;;
14740;SDS011;7462;53.530;9.414;2022-07-06T13:42:29;2.27;;;0.43;;
14740;SDS011;7462;53.530;9.414;2022-07-06T13:44:57;2.40;;;0.60;;
14740;SDS011;7462;53.530;9.414;2022-07-06T13:47:25;4.23;;;0.60;;
14740;SDS011;7462;53.530;9.414;2022-07-06T13:49:55;3.07;;;0.60;;
14740;SDS011;7462;53.530;9.414;2022-07-06T13:52:23;3.77;;;0.47;;
14740;SDS011;7462;53.530;9.414;2022-07-06T13:54:51;1.63;;;0.47;;
14740;SDS011;7462;53.530;9.414;2022-07-06T13:57:27;3.53;;;0.50;;
14740;SDS011;7462;53.530;9.414;2022-07-06T13:59:55;4.20;;;0.50;;
14740;SDS011;7462;53.530;9.414;2022-07-06T14:02:23;2.00;;;0.60;;
14740;SDS011;7462;53.530;9.414;2022-07-06T14:04:51;3.17;;;0.60;;
14740;SDS011;7462;53.530;9.414;2022-07-06T14:07:21;1.33;;;0.43;;
14740;SDS011;7462;53.530;9.414;2022-07-06T14:09:49;2.97;;;0.83;;
14740;SDS011;7462;53.530;9.414;2022-07-06T14:12:19;2.50;;;0.63;;
14740;SDS011;7462;53.530;9.414;2022-07-06T14:14:48;3.33;;;0.77;;
14740;SDS011;7462;53.530;9.414;2022-07-06T14:17:17;1.93;;;0.53;;
14740;SDS011;7462;53.530;9.414;2022-07-06T14:19:45;3.33;;;0.40;;
14740;SDS011;7462;53.530;9.414;2022-07-06T14:22:15;2.97;;;0.70;;
14740;SDS011;7462;53.530;9.414;2022-07-06T14:24:44;3.77;;;0.70;;
14740;SDS011;7462;53.530;9.414;2022-07-06T14:27:12;3.50;;;0.60;;
14740;SDS011;7462;53.530;9.414;2022-07-06T14:29:40;1.67;;;0.57;;
14740;SDS011;7462;53.530;9.414;2022-07-06T14:32:08;2.20;;;0.70;;
14740;SDS011;7462;53.530;9.414;2022-07-06T14:34:37;3.40;;;0.63;;
14740;SDS011;7462;53.530;9.414;2022-07-06T14:37:05;3.87;;;0.70;;
14740;SDS011;7462;53.530;9.414;2022-07-06T14:39:33;1.50;;;0.60;;
14740;SDS011;7462;53.530;9.414;2022-07-06T14:42:03;4.00;;;0.90;;
14740;SDS011;7462;53.530;9.414;2022-07-06T14:44:31;2.60;;;0.67;;
14740;SDS011;7462;53.530;9.414;2022-07-06T14:46:59;2.17;;;0.60;;
14740;SDS011;7462;53.530;9.414;2022-07-06T14:49:27;3.93;;;0.97;;
14740;SDS011;7462;53.530;9.414;2022-07-06T14:51:56;2.43;;;0.90;;
14740;SDS011;7462;53.530;9.414;2022-07-06T14:54:24;2.40;;;0.70;;
14740;SDS011;7462;53.530;9.414;2022-07-06T14:56:52;2.63;;;0.70;;
14740;SDS011;7462;53.530;9.414;2022-07-06T14:59:22;1.67;;;0.70;;
14740;SDS011;7462;53.530;9.414;2022-07-06T15:01:51;2.70;;;0.70;;
14740;SDS011;7462;53.530;9.414;2022-07-06T15:04:20;4.27;;;1.10;;
14740;SDS011;7462;53.530;9.414;2022-07-06T15:06:48;1.40;;;0.67;;
14740;SDS011;7462;53.530;9.414;2022-07-06T15:09:21;4.40;;;0.87;;
14740;SDS011;7462;53.530;9.414;2022-07-06T15:11:49;2.97;;;0.80;;
14740;SDS011;7462;53.530;9.414;2022-07-06T15:14:17;1.77;;;0.80;;
14740;SDS011;7462;53.530;9.414;2022-07-06T15:16:46;2.40;;;1.03;;
14740;SDS011;7462;53.530;9.414;2022-07-06T15:19:15;2.67;;;1.13;;
14740;SDS011;7462;53.530;9.414;2022-07-06T15:21:43;2.63;;;0.87;;